Time;durP1;ratioP1;P1;durP2;ratioP2;P2;SDS_P1;SDS_P2;PMS_P1;PMS_P2;Temp;Humidity;BMP_temperature;BMP_pressure;BME280_temperature;BME280_humidity;BME280_pressure;Samples;Min_cycle;Max_cycle;Signal;HPM_P1;HPM_P2
2022/09/09 00:02:15;;;;;;;0.47;0.47;;;;;;;18.26;79.40;95244.44;4319635;32;20169;-66
2022/09/09 00:04:41;;;;;;;0.40;0.40;;;;;;;18.12;80.42;95239.47;4336352;32;20268;-66
2022/09/09 00:07:29;;;;;;;1.27;0.67;;;;;;;18.11;80.75;95238.69;4338515;32;20185;-66
2022/09/09 00:10:15;;;;;;;0.73;0.40;;;;;;;18.24;80.40;95236.72;4331623;32;20240;-66
2022/09/09 00:12:58;;;;;;;2.73;0.67;;;;;;;18.15;80.24;95233.41;4321121;32;20182;-66
2022/09/09 00:15:38;;;;;;;6.50;1.10;;;;;;;18.07;81.62;95237.81;4309771;32;20185;-66
2022/09/09 00:18:29;;;;;;;0.27;0.27;;;;;;;17.93;81.22;95237.41;4328106;32;20245;-65
2022/09/09 00:21:17;;;;;;;14.33;0.80;;;;;;;17.94;82.24;95238.97;4295858;33;20206;-66
2022/09/09 00:24:01;;;;;;;0.30;0.30;;;;;;;18.01;82.64;95233.81;4307345;32;20190;-66
2022/09/09 00:26:30;;;;;;;0.60;0.60;;;;;;;18.02;81.75;95229.22;4338461;32;20294;-66
2022/09/09 00:29:15;;;;;;;0.27;0.27;;;;;;;18.12;81.17;95228.72;4348952;32;20227;-66
2022/09/09 00:31:42;;;;;;;0.87;0.40;;;;;;;18.20;81.82;95227.78;4328211;32;20213;-66
2022/09/09 00:34:21;;;;;;;1.30;0.67;;;;;;;18.17;81.50;95231.16;4354721;32;20189;-66
2022/09/09 00:36:51;;;;;;;0.30;0.30;;;;;;;18.18;81.10;95230.03;4358073;32;20237;-66
2022/09/09 00:39:39;;;;;;;1.97;0.40;;;;;;;18.15;81.14;95228.03;4350620;32;20203;-65
2022/09/09 00:42:23;;;;;;;0.57;0.53;;;;;;;18.07;81.58;95231.66;4345434;32;20234;-65
2022/09/09 00:45:07;;;;;;;0.63;0.60;;;;;;;18.13;81.79;95228.38;4337345;32;20182;-66
2022/09/09 00:47:52;;;;;;;0.67;0.67;;;;;;;18.08;82.01;95227.88;4333810;32;20292;-65
2022/09/09 00:50:35;;;;;;;0.60;0.47;;;;;;;18.06;81.67;95240.84;4287221;32;20217;-66
2022/09/09 00:53:19;;;;;;;0.83;0.57;;;;;;;18.00;82.01;95247.56;4337332;32;20200;-66
2022/09/09 00:56:14;;;;;;;0.17;0.17;;;;;;;17.90;80.80;95238.09;4362744;32;20181;-65
2022/09/09 00:59:24;;;;;;;0.10;0.10;;;;;;;17.92;81.82;95240.44;4329380;32;20193;-66
2022/09/09 01:01:52;;;;;;;0.43;0.43;;;;;;;18.07;82.10;95231.66;4326224;32;20227;-66
2022/09/09 01:04:28;;;;;;;0.50;0.50;;;;;;;17.90;82.21;95237.31;4321297;32;20182;-66
2022/09/09 01:07:12;;;;;;;0.37;0.37;;;;;;;18.02;81.74;95239.97;4307915;32;20177;-66
2022/09/09 01:09:55;;;;;;;0.20;0.20;;;;;;;18.17;81.91;95237.31;4336736;32;20262;-67
2022/09/09 01:12:24;;;;;;;0.40;0.40;;;;;;;18.16;81.64;95230.37;4345492;32;20191;-66
2022/09/09 01:14:58;;;;;;;0.50;0.50;;;;;;;18.13;81.94;95241.03;4336532;32;20241;-66
2022/09/09 01:17:35;;;;;;;0.37;0.37;;;;;;;17.81;80.23;95240.94;4375841;32;20271;-66
2022/09/09 01:20:08;;;;;;;0.47;0.47;;;;;;;17.72;82.55;95247.56;4322111;32;20193;-65
2022/09/09 01:22:58;;;;;;;0.97;0.43;;;;;;;17.56;83.26;95244.78;4307939;32;20192;-65
2022/09/09 01:25:29;;;;;;;2.73;0.53;;;;;;;17.74;83.37;95246.09;4346678;32;20278;-66
2022/09/09 01:28:04;;;;;;;0.60;0.60;;;;;;;17.83;83.46;95230.66;4320091;32;20324;-66
2022/09/09 01:30:38;;;;;;;0.20;0.20;;;;;;;17.84;83.31;95234.91;4301588;32;20177;-65
2022/09/09 01:33:04;;;;;;;0.20;0.20;;;;;;;17.97;82.47;95232.94;4320949;32;20185;-66
2022/09/09 01:35:48;;;;;;;0.23;0.23;;;;;;;17.86;81.50;95237.25;4336826;32;20269;-66
2022/09/09 01:38:19;;;;;;;0.60;0.60;;;;;;;18.01;82.64;95238.41;4349242;32;20232;-66
2022/09/09 01:40:45;;;;;;;0.20;0.20;;;;;;;17.89;82.78;95236.53;4334159;32;20270;-66
2022/09/09 01:43:11;;;;;;;0.17;0.17;;;;;;;17.91;83.58;95236.97;4315713;32;20280;-66
2022/09/09 01:45:39;;;;;;;0.30;0.30;;;;;;;17.88;81.09;95237.66;4362991;32;20186;-66
2022/09/09 01:48:05;;;;;;;0.10;0.10;;;;;;;17.89;83.29;95235.75;4366915;32;20194;-66
2022/09/09 01:50:32;;;;;;;0.20;0.20;;;;;;;17.93;83.02;95237.41;4330970;32;20200;-65
2022/09/09 01:52:59;;;;;;;0.40;0.40;;;;;;;17.89;83.08;95238.44;4338222;32;20199;-66
2022/09/09 01:55:37;;;;;;;0.13;0.13;;;;;;;17.94;83.35;95243.56;4351821;32;20193;-66
2022/09/09 01:58:33;;;;;;;0.40;0.40;;;;;;;17.92;83.61;95237.75;4347991;32;20311;-66
2022/09/09 02:01:23;;;;;;;0.20;0.20;;;;;;;17.78;82.40;95233.56;4328200;32;20216;-65
2022/09/09 02:03:55;;;;;;;1.43;0.97;;;;;;;17.87;82.26;95233.44;4327817;32;20299;-66
2022/09/09 02:06:34;;;;;;;0.83;0.50;;;;;;;17.82;83.93;95237.13;4345371;32;20185;-65
2022/09/09 02:09:04;;;;;;;0.23;0.23;;;;;;;17.87;83.86;95238.03;4328784;32;20203;-65
2022/09/09 02:11:33;;;;;;;0.37;0.37;;;;;;;17.62;82.39;95232.69;4338803;32;20184;-65
2022/09/09 02:14:08;;;;;;;0.40;0.40;;;;;;;17.55;83.03;95237.06;4330966;32;20192;-65
2022/09/09 02:16:50;;;;;;;0.60;0.60;;;;;;;17.43;84.06;95229.84;4355379;32;20261;-66
2022/09/09 02:19:37;;;;;;;0.27;0.27;;;;;;;17.39;85.41;95223.59;4345392;32;20206;-66
2022/09/09 02:22:05;;;;;;;0.47;0.47;;;;;;;17.59;85.54;95219.97;4354250;32;20219;-65
2022/09/09 02:24:40;;;;;;;0.10;0.10;;;;;;;17.70;85.39;95214.91;4345701;32;20253;-65
2022/09/09 02:27:10;;;;;;;0.40;0.40;;;;;;;17.67;85.76;95219.06;4295196;32;20243;-66
2022/09/09 02:29:41;;;;;;;0.10;0.10;;;;;;;17.34;85.50;95221.91;4337800;32;20215;-65
2022/09/09 02:32:11;;;;;;;0.20;0.20;;;;;;;17.52;86.24;95227.78;4326355;32;20257;-66
2022/09/09 02:34:42;;;;;;;0.50;0.50;;;;;;;17.61;84.82;95228.44;4359009;32;20189;-65
2022/09/09 02:37:10;;;;;;;0.30;0.30;;;;;;;17.67;84.66;95229.00;4359406;32;20218;-65
2022/09/09 02:39:36;;;;;;;0.23;0.23;;;;;;;17.69;85.24;95218.72;4345331;32;20184;-66
2022/09/09 02:42:08;;;;;;;0.57;0.57;;;;;;;17.56;85.75;95226.00;4345108;32;20219;-65
2022/09/09 02:44:34;;;;;;;0.20;0.20;;;;;;;17.74;84.93;95219.25;4342318;32;20216;-66
2022/09/09 02:47:29;;;;;;;0.13;0.13;;;;;;;17.58;85.09;95215.72;4351896;32;20181;-66
2022/09/09 02:50:25;;;;;;;0.20;0.20;;;;;;;17.64;85.75;95225.13;4328886;32;20185;-66
2022/09/09 02:53:16;;;;;;;0.10;0.10;;;;;;;17.65;85.67;95213.28;4345794;32;20203;-66
2022/09/09 02:55:48;;;;;;;0.50;0.33;;;;;;;17.72;85.69;95215.34;4325099;32;20184;-66
2022/09/09 02:58:19;;;;;;;0.10;0.10;;;;;;;17.71;85.63;95217.25;4350091;32;20181;-67
2022/09/09 03:00:49;;;;;;;0.43;0.43;;;;;;;17.64;85.55;95216.25;4319413;32;20212;-67
2022/09/09 03:03:18;;;;;;;0.70;0.70;;;;;;;17.67;85.37;95229.00;4327158;32;20220;-67
2022/09/09 03:05:44;;;;;;;0.30;0.20;;;;;;;17.59;86.52;95219.97;4345080;32;20216;-66
2022/09/09 03:08:10;;;;;;;0.47;0.30;;;;;;;17.71;86.16;95214.56;4333711;32;20190;-66
2022/09/09 03:10:36;;;;;;;0.30;0.30;;;;;;;17.52;85.60;95217.84;4360893;32;20198;-65
2022/09/09 03:13:08;;;;;;;0.20;0.20;;;;;;;17.52;85.62;95207.13;4326100;32;20228;-65
2022/09/09 03:15:37;;;;;;;0.20;0.20;;;;;;;17.36;85.19;95213.53;4361050;32;20216;-66
2022/09/09 03:18:02;;;;;;;0.40;0.40;;;;;;;17.24;85.07;95217.03;4309118;32;20209;-65
2022/09/09 03:20:29;;;;;;;1.80;1.13;;;;;;;17.11;86.42;95210.88;4358294;32;20185;-66
2022/09/09 03:22:56;;;;;;;0.33;0.30;;;;;;;17.33;87.99;95209.63;4350315;32;20181;-66
2022/09/09 03:25:26;;;;;;;0.20;0.20;;;;;;;17.32;86.57;95212.63;4331939;32;20226;-66
2022/09/09 03:27:54;;;;;;;3.97;0.57;;;;;;;17.54;86.31;95209.47;4330314;32;20182;-66
2022/09/09 03:30:20;;;;;;;0.30;0.30;;;;;;;17.58;85.94;95201.50;4300768;32;20297;-66
2022/09/09 03:32:47;;;;;;;0.30;0.30;;;;;;;17.46;86.17;95199.63;4320162;32;20185;-66
2022/09/09 03:35:15;;;;;;;0.43;0.30;;;;;;;17.51;86.69;95212.81;4354135;32;20282;-65
2022/09/09 03:37:43;;;;;;;0.43;0.43;;;;;;;17.49;86.48;95209.69;4326370;32;20201;-65
2022/09/09 03:40:10;;;;;;;0.67;0.40;;;;;;;17.59;85.97;95211.12;4347578;32;20197;-65
2022/09/09 03:42:37;;;;;;;2.47;0.20;;;;;;;17.55;86.07;95207.56;4352620;32;20189;-65
2022/09/09 03:45:07;;;;;;;1.20;0.73;;;;;;;17.52;85.33;95201.75;4349112;32;20281;-65
2022/09/09 03:47:35;;;;;;;0.20;0.20;;;;;;;17.51;86.42;95208.22;4347372;32;20228;-65
2022/09/09 03:50:01;;;;;;;0.10;0.10;;;;;;;17.51;86.33;95205.56;4329370;32;20209;-64
2022/09/09 03:52:29;;;;;;;0.10;0.10;;;;;;;17.53;86.39;95206.00;4330331;32;20228;-66
2022/09/09 03:54:55;;;;;;;0.43;0.43;;;;;;;17.53;85.70;95207.91;4343529;32;20193;-66
2022/09/09 03:57:21;;;;;;;1.50;0.50;;;;;;;17.53;86.95;95205.22;4345484;32;20271;-65
2022/09/09 03:59:47;;;;;;;0.20;0.20;;;;;;;17.55;85.99;95210.25;4340268;32;20185;-65
2022/09/09 04:02:12;;;;;;;0.40;0.40;;;;;;;17.44;86.75;95201.91;4333478;32;20243;-65
2022/09/09 04:04:38;;;;;;;0.40;0.40;;;;;;;17.57;86.59;95202.62;4329176;32;20182;-66
2022/09/09 04:07:06;;;;;;;0.30;0.30;;;;;;;17.61;86.26;95200.84;4357955;32;20208;-65
2022/09/09 04:09:34;;;;;;;0.20;0.20;;;;;;;17.49;86.79;95196.28;4328160;32;20178;-65
2022/09/09 04:12:00;;;;;;;0.17;0.17;;;;;;;17.55;86.25;95202.97;4352398;32;20181;-64
2022/09/09 04:14:28;;;;;;;0.53;0.53;;;;;;;17.62;85.52;95202.41;4330002;32;20196;-66
2022/09/09 04:16:54;;;;;;;0.40;0.40;;;;;;;17.62;86.16;95197.81;4339381;32;20193;-67
2022/09/09 04:19:19;;;;;;;0.60;0.43;;;;;;;17.48;85.28;95194.72;4324619;32;20310;-66
2022/09/09 04:21:46;;;;;;;2.97;0.67;;;;;;;17.45;86.69;95185.47;4338631;32;20201;-66
2022/09/09 04:24:12;;;;;;;0.43;0.43;;;;;;;17.50;86.62;95193.25;4345056;32;20177;-66
2022/09/09 04:26:38;;;;;;;0.43;0.43;;;;;;;17.49;86.58;95186.34;4340937;32;20181;-66
2022/09/09 04:29:07;;;;;;;11.70;0.73;;;;;;;17.54;86.67;95193.38;4346324;32;20186;-67
2022/09/09 04:31:33;;;;;;;0.50;0.50;;;;;;;17.54;86.49;95177.25;4325050;32;20255;-66
2022/09/09 04:34:02;;;;;;;0.63;0.60;;;;;;;17.49;86.46;95174.81;4338255;32;20323;-66
2022/09/09 04:36:27;;;;;;;0.20;0.20;;;;;;;17.58;86.57;95163.97;4296922;32;20186;-66
2022/09/09 04:38:53;;;;;;;1.37;0.50;;;;;;;17.57;86.55;95168.53;4321363;32;20193;-66
2022/09/09 04:41:24;;;;;;;1.40;0.57;;;;;;;17.34;86.56;95175.53;4337415;32;20268;-67
2022/09/09 04:43:50;;;;;;;0.30;0.30;;;;;;;17.54;87.29;95174.59;4322915;32;20181;-66
2022/09/09 04:46:28;;;;;;;0.40;0.40;;;;;;;17.55;86.37;95173.47;4361941;32;20220;-66
2022/09/09 04:48:53;;;;;;;0.27;0.23;;;;;;;17.61;86.24;95177.47;4343238;32;20185;-66
2022/09/09 04:51:28;;;;;;;0.33;0.33;;;;;;;17.44;86.37;95180.44;4336443;32;20189;-66
2022/09/09 04:53:54;;;;;;;0.30;0.30;;;;;;;17.46;86.18;95172.81;4355272;32;20301;-65
2022/09/09 04:56:36;;;;;;;0.30;0.30;;;;;;;17.42;86.84;95170.06;4342681;32;20269;-66
2022/09/09 04:59:03;;;;;;;1.90;0.70;;;;;;;17.34;86.91;95167.50;4320290;32;20192;-65
2022/09/09 05:01:32;;;;;;;0.33;0.33;;;;;;;17.32;86.68;95172.41;4356534;32;20181;-68
2022/09/09 05:03:58;;;;;;;0.40;0.40;;;;;;;17.50;87.04;95168.34;4367078;32;20183;-67
2022/09/09 05:06:24;;;;;;;0.40;0.40;;;;;;;17.47;86.89;95171.69;4355272;32;20181;-67
2022/09/09 05:08:51;;;;;;;0.40;0.40;;;;;;;17.42;87.03;95177.31;4314555;32;20276;-66
2022/09/09 05:11:28;;;;;;;0.40;0.40;;;;;;;17.42;86.84;95175.41;4308322;32;20270;-66
2022/09/09 05:13:54;;;;;;;0.40;0.40;;;;;;;17.42;87.30;95183.47;4356344;32;20194;-67
2022/09/09 05:16:30;;;;;;;0.20;0.20;;;;;;;17.35;86.87;95191.28;4327846;32;20186;-66
2022/09/09 05:18:55;;;;;;;0.43;0.43;;;;;;;17.41;87.19;95189.16;4316098;33;20204;-65
2022/09/09 05:21:26;;;;;;;0.60;0.60;;;;;;;17.37;86.93;95194.41;4324503;32;20205;-66
2022/09/09 05:23:53;;;;;;;4.40;0.60;;;;;;;17.47;87.63;95193.16;4365271;32;20203;-66
2022/09/09 05:26:29;;;;;;;0.20;0.20;;;;;;;17.36;87.44;95187.50;4344908;32;20266;-67
2022/09/09 05:28:56;;;;;;;0.80;0.80;;;;;;;17.30;87.60;95194.19;4350472;32;20173;-66
2022/09/09 05:31:25;;;;;;;0.30;0.30;;;;;;;17.25;87.84;95189.06;4344431;32;20213;-66
2022/09/09 05:33:52;;;;;;;1.93;0.87;;;;;;;17.33;87.74;95200.78;4357733;32;20352;-66
2022/09/09 05:36:26;;;;;;;0.30;0.30;;;;;;;17.41;88.16;95191.84;4331944;32;20186;-66
2022/09/09 05:38:53;;;;;;;0.20;0.20;;;;;;;17.47;86.95;95191.25;4354911;32;20203;-66
2022/09/09 05:41:32;;;;;;;0.50;0.50;;;;;;;17.47;87.20;95199.28;4358270;32;20254;-66
2022/09/09 05:44:03;;;;;;;1.40;0.40;;;;;;;17.45;86.67;95193.53;4323166;32;20185;-65
2022/09/09 05:46:29;;;;;;;1.63;0.70;;;;;;;17.44;87.76;95200.00;4329654;32;20199;-66
2022/09/09 05:48:54;;;;;;;0.27;0.27;;;;;;;17.30;87.19;95199.56;4311490;32;20269;-66
2022/09/09 05:51:26;;;;;;;0.73;0.60;;;;;;;17.37;86.67;95199.00;4349662;32;23090;-66
2022/09/09 05:53:52;;;;;;;0.63;0.20;;;;;;;17.50;86.69;95195.16;4368190;32;20248;-66
2022/09/09 05:56:30;;;;;;;0.10;0.10;;;;;;;17.56;86.79;95190.34;4329659;32;20190;-66
2022/09/09 05:58:59;;;;;;;1.20;0.77;;;;;;;17.55;86.40;95194.94;4348894;32;20199;-66
2022/09/09 06:01:30;;;;;;;0.20;0.20;;;;;;;17.47;85.58;95193.94;4355658;32;20232;-66
2022/09/09 06:03:55;;;;;;;0.30;0.30;;;;;;;17.50;86.18;95198.63;4360374;32;20188;-66
2022/09/09 06:06:26;;;;;;;0.10;0.10;;;;;;;17.59;85.79;95195.03;4356923;32;20287;-66
2022/09/09 06:08:56;;;;;;;0.80;0.53;;;;;;;17.44;86.06;95213.41;4347583;32;20207;-66
2022/09/09 06:11:30;;;;;;;0.17;0.17;;;;;;;17.53;86.37;95214.03;4342659;32;20236;-66
2022/09/09 06:13:58;;;;;;;0.30;0.30;;;;;;;17.61;86.19;95215.03;4364042;32;20196;-66
2022/09/09 06:16:26;;;;;;;0.97;0.53;;;;;;;17.43;85.60;95208.38;4369615;32;20185;-65
2022/09/09 06:18:52;;;;;;;0.10;0.10;;;;;;;17.51;85.74;95215.50;4380284;32;20264;-66
2022/09/09 06:21:44;;;;;;;0.40;0.40;;;;;;;17.54;86.21;95209.47;4377760;32;20177;-65
2022/09/09 06:24:13;;;;;;;23.33;0.93;;;;;;;17.60;85.54;95213.47;4339403;32;20210;-66
2022/09/09 06:26:40;;;;;;;0.10;0.10;;;;;;;17.57;84.47;95216.84;4331039;32;20204;-66
2022/09/09 06:29:06;;;;;;;0.17;0.17;;;;;;;17.53;85.03;95210.56;4333992;32;20177;-66
2022/09/09 06:31:36;;;;;;;0.10;0.10;;;;;;;17.59;85.27;95206.53;4355295;32;20271;-65
2022/09/09 06:34:05;;;;;;;3.70;0.63;;;;;;;17.69;85.04;95208.75;4304178;32;20201;-65
2022/09/09 06:36:39;;;;;;;0.67;0.67;;;;;;;17.76;85.74;95200.91;4314652;32;20204;-65
2022/09/09 06:39:08;;;;;;;0.20;0.20;;;;;;;17.69;84.55;95206.06;4363981;32;20185;-65
2022/09/09 06:41:33;;;;;;;0.50;0.50;;;;;;;17.63;84.82;95201.28;4358686;32;20262;-64
2022/09/09 06:43:59;;;;;;;0.30;0.30;;;;;;;17.53;84.16;95202.53;4345942;32;20196;-62
2022/09/09 06:46:29;;;;;;;0.20;0.20;;;;;;;17.39;83.71;95202.91;4337580;32;20232;-68
2022/09/09 06:48:58;;;;;;;0.60;0.33;;;;;;;17.22;84.06;95207.75;4359856;32;20181;-68
2022/09/09 06:51:27;;;;;;;0.33;0.33;;;;;;;17.22;84.81;95213.91;4335113;32;20267;-58
2022/09/09 06:54:02;;;;;;;13.73;1.30;;;;;;;17.04;83.83;95216.03;4335716;32;20199;-58
2022/09/09 06:56:33;;;;;;;0.20;0.20;;;;;;;17.25;86.62;95217.81;4355667;32;20051;-57
2022/09/09 06:59:03;;;;;;;0.23;0.23;;;;;;;17.10;84.86;95222.72;4304141;32;20208;-57
2022/09/09 07:01:34;;;;;;;0.20;0.20;;;;;;;17.32;85.93;95226.84;4316918;32;20185;-57
2022/09/09 07:04:04;;;;;;;0.70;0.70;;;;;;;17.82;86.66;95223.72;4363356;32;20180;-55
2022/09/09 07:06:32;;;;;;;0.50;0.50;;;;;;;18.18;86.04;95227.34;4354367;32;20189;-57
2022/09/09 07:09:03;;;;;;;0.50;0.50;;;;;;;18.35;83.79;95228.94;4368523;32;20272;-56
2022/09/09 07:11:33;;;;;;;0.77;0.57;;;;;;;18.54;83.77;95224.44;4329667;32;20181;-57
2022/09/09 07:14:06;;;;;;;2.13;1.23;;;;;;;18.67;82.60;95221.72;4358298;32;20282;-57
2022/09/09 07:16:33;;;;;;;0.83;0.33;;;;;;;18.81;81.95;95222.84;4359727;32;20178;-57
2022/09/09 07:19:02;;;;;;;0.67;0.67;;;;;;;18.91;81.38;95221.53;4364514;32;20173;-57
2022/09/09 07:21:31;;;;;;;0.20;0.20;;;;;;;19.03;81.36;95231.41;4313405;32;20193;-55
2022/09/09 07:23:58;;;;;;;0.40;0.40;;;;;;;19.08;80.52;95236.53;4354265;32;20185;-56
2022/09/09 07:26:26;;;;;;;9.73;0.50;;;;;;;19.14;80.18;95256.62;4331326;32;20281;-56
2022/09/09 07:28:54;;;;;;;0.50;0.50;;;;;;;19.03;79.44;95275.22;4318391;32;20346;-58
2022/09/09 07:31:33;;;;;;;0.20;0.20;;;;;;;18.98;79.97;95280.84;4360186;32;20198;-57
2022/09/09 07:34:00;;;;;;;0.28;0.28;;;;;;;19.11;80.28;95266.19;4341061;32;20047;-57
2022/09/09 07:36:35;;;;;;;0.77;0.77;;;;;;;19.21;79.06;95272.94;4361923;32;20173;-57
2022/09/09 07:39:04;;;;;;;0.77;0.77;;;;;;;19.51;78.19;95275.97;4322082;32;20255;-55
2022/09/09 07:41:37;;;;;;;0.30;0.30;;;;;;;19.50;77.77;95277.88;4338210;32;20189;-58
2022/09/09 07:44:15;;;;;;;0.50;0.50;;;;;;;19.32;77.88;95278.56;4340009;32;20200;-57
2022/09/09 07:46:44;;;;;;;0.50;0.50;;;;;;;19.20;78.09;95280.22;4341644;32;20230;-57
2022/09/09 07:49:10;;;;;;;0.50;0.50;;;;;;;19.44;77.72;95287.31;4348344;32;20189;-57
2022/09/09 07:51:41;;;;;;;1.03;0.70;;;;;;;19.43;77.37;95291.13;4343796;32;20273;-57
2022/09/09 07:54:10;;;;;;;0.50;0.50;;;;;;;19.33;77.02;95280.12;4344855;32;20181;-55
2022/09/09 07:56:39;;;;;;;0.60;0.37;;;;;;;19.43;76.34;95290.34;4355477;32;20203;-57
2022/09/09 07:59:07;;;;;;;0.60;0.53;;;;;;;18.99;77.18;95287.00;4363150;32;20262;-57
2022/09/09 08:01:37;;;;;;;0.20;0.20;;;;;;;19.11;78.17;95292.31;4327638;32;20229;-56
2022/09/09 08:04:08;;;;;;;0.07;0.07;;;;;;;19.04;77.50;95287.53;4369662;32;20208;-69
2022/09/09 08:06:40;;;;;;;0.10;0.10;;;;;;;18.95;77.57;95296.88;4361360;32;20226;-70
2022/09/09 08:09:08;;;;;;;0.23;0.23;;;;;;;18.51;79.20;95289.63;4330128;32;20212;-65
2022/09/09 08:11:35;;;;;;;4.73;0.87;;;;;;;18.49;79.71;95283.06;4353855;32;20207;-65
2022/09/09 08:14:02;;;;;;;0.10;0.10;;;;;;;18.23;80.46;95288.88;4358492;32;20181;-66
2022/09/09 08:16:31;;;;;;;0.27;0.20;;;;;;;18.20;81.28;95294.94;4338914;32;20173;-66
2022/09/09 08:18:57;;;;;;;0.20;0.20;;;;;;;18.31;81.44;95304.03;4339461;32;20231;-69
2022/09/09 08:21:30;;;;;;;0.07;0.07;;;;;;;18.34;81.61;95316.78;4348693;32;20197;-67
2022/09/09 08:24:00;;;;;;;1.67;0.60;;;;;;;18.06;82.03;95307.97;4345170;32;20185;-68
2022/09/09 08:26:31;;;;;;;0.30;0.30;;;;;;;18.08;82.49;95313.78;4348899;32;20276;-65
2022/09/09 08:28:59;;;;;;;0.40;0.40;;;;;;;17.95;83.32;95310.34;4357935;32;20200;-64
2022/09/09 08:31:28;;;;;;;0.30;0.30;;;;;;;18.04;83.29;95313.69;4350637;32;20185;-65
2022/09/09 08:33:54;;;;;;;0.57;0.57;;;;;;;18.15;83.39;95313.97;4357358;32;20254;-63
2022/09/09 08:36:33;;;;;;;0.30;0.30;;;;;;;18.20;83.60;95321.78;4355264;32;20186;-63
2022/09/09 08:38:59;;;;;;;0.10;0.10;;;;;;;17.99;83.35;95315.81;4337881;32;20203;-68
2022/09/09 08:41:30;;;;;;;0.40;0.40;;;;;;;18.09;83.40;95323.38;4354362;32;20199;-65
2022/09/09 08:44:18;;;;;;;0.47;0.47;;;;;;;18.19;83.15;95326.38;4367076;32;20258;-65
2022/09/09 08:47:22;;;;;;;0.27;0.27;;;;;;;18.24;82.95;95332.62;4339216;32;20193;-64
2022/09/09 08:49:56;;;;;;;0.20;0.20;;;;;;;18.20;83.08;95319.09;4324016;32;20177;-63
2022/09/09 08:52:32;;;;;;;0.83;0.40;;;;;;;18.19;83.87;95325.59;4360206;32;20270;-62
2022/09/09 08:55:21;;;;;;;3.00;0.73;;;;;;;18.20;83.52;95329.84;4339722;32;20199;-62
2022/09/09 08:57:51;;;;;;;0.40;0.40;;;;;;;18.05;83.85;95319.84;4331473;32;20268;-62
2022/09/09 09:00:19;;;;;;;1.17;0.67;;;;;;;18.06;84.51;95329.44;4370518;32;20180;-63
2022/09/09 09:03:23;;;;;;;0.40;0.40;;;;;;;17.95;85.12;95317.59;4347554;32;20174;-65
2022/09/09 09:06:05;;;;;;;0.20;0.20;;;;;;;18.10;83.63;95320.34;4354439;32;20263;-67
2022/09/09 09:08:43;;;;;;;0.30;0.30;;;;;;;18.04;83.98;95323.63;4322582;32;20184;-67
2022/09/09 09:11:22;;;;;;;0.70;0.70;;;;;;;18.13;83.95;95318.88;4359164;32;20189;-65
2022/09/09 09:14:09;;;;;;;0.20;0.20;;;;;;;18.16;84.34;95320.91;4361746;32;20184;-66
2022/09/09 09:16:56;;;;;;;0.70;0.70;;;;;;;18.19;83.43;95314.84;4365151;32;20263;-66
2022/09/09 09:19:25;;;;;;;0.20;0.20;;;;;;;18.10;82.66;95309.59;4338645;32;20180;-66
2022/09/09 09:22:04;;;;;;;0.30;0.20;;;;;;;18.18;83.38;95319.44;4349508;32;20199;-66
2022/09/09 09:24:50;;;;;;;0.40;0.40;;;;;;;18.16;84.38;95318.22;4344460;32;20180;-67
2022/09/09 09:27:25;;;;;;;0.47;0.47;;;;;;;18.25;83.77;95324.22;4346612;32;20195;-66
2022/09/09 09:29:56;;;;;;;0.43;0.43;;;;;;;18.27;83.87;95324.69;4336779;32;20193;-66
2022/09/09 09:32:24;;;;;;;0.70;0.57;;;;;;;18.27;83.42;95321.22;4357560;32;20354;-66
2022/09/09 09:34:56;;;;;;;0.23;0.23;;;;;;;18.38;82.71;95323.06;4340673;32;20308;-66
2022/09/09 09:37:50;;;;;;;0.20;0.20;;;;;;;18.49;82.53;95324.13;4372801;32;20180;-65
2022/09/09 09:40:20;;;;;;;0.37;0.37;;;;;;;18.64;81.68;95324.53;4338282;32;20185;-66
2022/09/09 09:42:56;;;;;;;0.10;0.10;;;;;;;18.53;81.15;95322.31;4338719;32;20208;-67
2022/09/09 09:45:44;;;;;;;0.40;0.40;;;;;;;18.70;80.80;95328.53;4367327;32;20176;-66
2022/09/09 09:48:12;;;;;;;0.70;0.70;;;;;;;18.55;81.85;95328.13;4370821;32;20176;-66
2022/09/09 09:50:57;;;;;;;0.20;0.20;;;;;;;18.66;81.79;95324.97;4334827;32;20189;-66
2022/09/09 09:53:33;;;;;;;0.33;0.33;;;;;;;18.75;82.12;95325.56;4330410;32;20264;-66
2022/09/09 09:56:07;;;;;;;0.10;0.10;;;;;;;18.69;82.20;95332.34;4342465;32;20172;-66
2022/09/09 09:58:54;;;;;;;0.60;0.60;;;;;;;18.67;83.12;95338.06;4347196;32;20191;-65
2022/09/09 10:04:25;;;;;;;0.30;0.30;;;;;;;18.53;83.82;95341.09;4350251;32;20196;-66
2022/09/09 10:06:51;;;;;;;0.93;0.93;;;;;;;18.49;83.95;95334.88;4348520;32;20256;-65
2022/09/09 10:09:32;;;;;;;0.73;0.40;;;;;;;18.47;83.56;95333.66;4342973;32;20188;-66
2022/09/09 10:12:36;;;;;;;1.33;0.67;;;;;;;18.47;83.93;95331.75;4339821;32;20243;-65
2022/09/09 10:15:34;;;;;;;0.00;0.00;;;;;;;18.37;82.40;95336.81;4328568;32;20242;-66
2022/09/09 10:18:37;;;;;;;0.20;0.20;;;;;;;18.46;82.65;95329.41;4356048;32;20263;-66
2022/09/09 10:21:27;;;;;;;0.07;0.07;;;;;;;18.47;82.58;95331.75;4379093;32;20176;-65
2022/09/09 10:24:05;;;;;;;0.10;0.10;;;;;;;18.42;82.22;95328.53;4331729;32;20477;-66
2022/09/09 10:27:05;;;;;;;0.50;0.50;;;;;;;18.45;82.27;95330.53;4327064;32;20290;-66
2022/09/09 10:30:02;;;;;;;0.13;0.13;;;;;;;18.42;82.06;95334.69;4311383;33;20200;-65
2022/09/09 10:32:46;;;;;;;0.27;0.27;;;;;;;18.46;81.76;95334.78;4316535;32;20185;-66
2022/09/09 10:35:31;;;;;;;2.47;0.47;;;;;;;18.40;82.12;95325.41;4355094;32;20181;-66
2022/09/09 10:38:29;;;;;;;0.10;0.10;;;;;;;18.41;82.28;95333.12;4367727;32;20196;-66
2022/09/09 10:40:56;;;;;;;0.23;0.23;;;;;;;18.46;82.17;95334.78;4354760;32;20222;-66
2022/09/09 10:44:02;;;;;;;0.83;0.40;;;;;;;18.19;82.33;95330.97;4350063;32;20240;-65
2022/09/09 10:46:49;;;;;;;0.30;0.30;;;;;;;18.35;82.60;95333.69;4339953;32;20173;-65
2022/09/09 10:49:33;;;;;;;0.27;0.27;;;;;;;18.30;83.33;95336.63;4346968;32;20232;-66
2022/09/09 10:52:37;;;;;;;0.40;0.40;;;;;;;18.34;82.01;95338.28;4371888;32;20183;-62
2022/09/09 10:55:17;;;;;;;0.20;0.20;;;;;;;18.30;81.86;95337.41;4323209;32;20185;-64
2022/09/09 10:57:52;;;;;;;0.40;0.40;;;;;;;18.38;81.41;95339.16;4377930;32;20195;-63
2022/09/09 11:00:47;;;;;;;0.10;0.10;;;;;;;18.30;81.78;95333.94;4345961;32;20200;-64
2022/09/09 11:03:22;;;;;;;0.20;0.20;;;;;;;18.25;81.53;95340.34;4354762;32;20246;-64
2022/09/09 11:05:56;;;;;;;1.20;0.53;;;;;;;18.38;81.06;95338.38;4361402;32;20266;-64
2022/09/09 11:08:29;;;;;;;0.33;0.33;;;;;;;18.49;80.57;95334.88;4355396;32;20216;-57
2022/09/09 11:11:28;;;;;;;0.97;0.80;;;;;;;18.67;81.73;95337.28;4359571;32;20199;-54
2022/09/09 11:14:28;;;;;;;0.77;0.77;;;;;;;18.88;81.66;95329.78;4350243;32;20239;-54
2022/09/09 11:17:04;;;;;;;0.10;0.10;;;;;;;19.01;80.93;95331.25;4330116;32;20386;-54
2022/09/09 11:19:43;;;;;;;0.77;0.73;;;;;;;19.05;79.02;95332.12;4345379;32;20256;-51
2022/09/09 11:22:33;;;;;;;4.80;0.50;;;;;;;19.36;79.68;95333.22;4353948;32;20205;-51
2022/09/09 11:25:17;;;;;;;0.20;0.20;;;;;;;18.96;78.45;95331.50;4342133;32;20258;-55
2022/09/09 11:28:32;;;;;;;0.10;0.10;;;;;;;18.95;78.26;95331.84;4353047;32;20203;-53
2022/09/09 11:31:27;;;;;;;0.40;0.27;;;;;;;18.66;79.51;95324.97;4329758;32;20189;-55
2022/09/09 11:34:37;;;;;;;0.27;0.27;;;;;;;18.87;79.79;95329.00;4325459;32;20223;-54
2022/09/09 11:37:22;;;;;;;0.40;0.40;;;;;;;19.13;80.30;95325.00;4335628;32;20247;-55
2022/09/09 11:40:06;;;;;;;0.20;0.20;;;;;;;18.70;79.81;95326.63;4365515;32;20181;-55
2022/09/09 11:42:33;;;;;;;0.50;0.37;;;;;;;18.72;78.48;95323.56;4317027;32;20189;-54
2022/09/09 11:45:29;;;;;;;0.73;0.40;;;;;;;18.93;79.32;95321.44;4339351;32;20186;-54
2022/09/09 11:48:00;;;;;;;0.07;0.07;;;;;;;18.79;79.86;95326.47;4318273;32;20267;-54
2022/09/09 11:50:44;;;;;;;0.30;0.30;;;;;;;18.70;78.03;95320.47;4337279;32;20264;-52
2022/09/09 11:53:22;;;;;;;0.00;0.00;;;;;;;18.75;77.74;95314.81;4337619;32;20192;-57
2022/09/09 11:56:06;;;;;;;0.53;0.20;;;;;;;18.94;77.80;95317.62;4341490;32;20191;-55
2022/09/09 11:58:56;;;;;;;0.10;0.10;;;;;;;19.04;76.18;95316.34;4344338;32;20181;-55
2022/09/09 12:04:52;;;;;;;1.33;0.20;;;;;;;19.11;75.14;95322.69;4367419;32;20222;-55
2022/09/09 12:08:03;;;;;;;1.37;0.50;;;;;;;19.10;75.32;95326.50;4376114;32;20183;-53
2022/09/09 12:10:35;;;;;;;0.07;0.07;;;;;;;19.00;75.42;95326.22;4288960;32;20177;-52
2022/09/09 12:16:38;;;;;;;6.03;0.53;;;;;;;19.28;77.01;95320.75;4358676;32;20290;-66
2022/09/09 12:19:19;;;;;;;0.93;0.40;;;;;;;19.42;73.65;95326.47;4357681;32;20184;-66
2022/09/09 12:21:51;;;;;;;0.20;0.20;;;;;;;19.33;73.86;95328.56;4352019;32;20227;-67